Time;durP1;ratioP1;P1;durP2;ratioP2;P2;SDS_P1;SDS_P2;PMS_P1;PMS_P2;Temp;Humidity;BMP_temperature;BMP_pressure;BME280_temperature;BME280_humidity;BME280_pressure;Samples;Min_cycle;Max_cycle;Signal;HPM_P1;HPM_P2
2023/06/30 00:01:48;;;;;;;8.73;7.43;;;;;;;23.94;53.49;98961.34;4948964;28;20577;-77
2023/06/30 00:04:16;;;;;;;9.37;6.63;;;;;;;23.99;53.16;98966.13;4944630;28;20491;-77
2023/06/30 00:06:42;;;;;;;8.57;7.40;;;;;;;24.06;52.93;98967.81;4945724;28;20833;-77
2023/06/30 00:09:08;;;;;;;9.33;7.20;;;;;;;24.11;52.74;98969.88;4945251;28;20487;-77
2023/06/30 00:11:33;;;;;;;8.30;7.50;;;;;;;24.14;52.63;98974.88;4946009;28;20991;-77
2023/06/30 00:13:59;;;;;;;10.03;8.30;;;;;;;24.15;52.52;98992.59;4947185;28;20275;-77
2023/06/30 00:16:24;;;;;;;11.60;8.67;;;;;;;24.13;52.37;98999.19;4945144;28;20221;-78
2023/06/30 00:18:49;;;;;;;9.43;7.20;;;;;;;24.07;52.26;99001.66;4947682;28;20233;-77
2023/06/30 00:21:15;;;;;;;9.87;7.30;;;;;;;24.03;52.56;99000.41;4948859;28;20221;-78
2023/06/30 00:23:41;;;;;;;8.30;7.00;;;;;;;24.02;52.17;99001.41;4947304;28;20218;-77
2023/06/30 00:26:06;;;;;;;8.93;7.30;;;;;;;24.05;51.99;99000.19;4944715;28;21003;-77
2023/06/30 00:28:32;;;;;;;12.00;7.77;;;;;;;24.07;51.81;98996.28;4943208;28;20232;-78
2023/06/30 00:30:57;;;;;;;9.87;7.70;;;;;;;24.10;51.68;99000.44;4947521;28;20228;-78
2023/06/30 00:33:24;;;;;;;9.73;8.70;;;;;;;24.12;52.16;99005.59;4947338;28;20241;-78
2023/06/30 00:35:50;;;;;;;16.17;11.43;;;;;;;24.11;53.24;99012.81;4944072;28;20455;-77
2023/06/30 00:38:15;;;;;;;21.00;11.47;;;;;;;24.05;54.16;99005.56;4946566;28;20241;-78
2023/06/30 00:40:41;;;;;;;18.67;13.73;;;;;;;23.94;54.73;99006.97;4939554;28;20238;-82
2023/06/30 00:43:07;;;;;;;22.03;14.20;;;;;;;23.79;56.01;98999.06;4930744;28;20260;-78
2023/06/30 00:45:33;;;;;;;23.13;13.10;;;;;;;23.59;57.19;98987.34;4949637;28;20518;-79
2023/06/30 00:47:58;;;;;;;17.70;11.83;;;;;;;23.30;58.66;98969.59;4929455;28;20775;-80
2023/06/30 00:50:25;;;;;;;19.27;14.20;;;;;;;23.00;59.89;98969.78;4942062;28;20238;-79
2023/06/30 00:52:50;;;;;;;20.20;14.30;;;;;;;22.78;60.97;98979.66;4945865;28;20293;-79
2023/06/30 00:55:16;;;;;;;23.00;15.23;;;;;;;22.62;61.07;98988.78;4926908;28;20451;-78
2023/06/30 00:57:42;;;;;;;18.63;13.27;;;;;;;22.48;62.05;98984.31;4926435;28;20222;-77
2023/06/30 01:00:11;;;;;;;19.97;12.73;;;;;;;22.34;62.28;98990.53;4945143;28;20517;-77
2023/06/30 01:03:01;;;;;;;24.47;15.50;;;;;;;22.18;63.09;98981.72;4925503;28;20730;-78
2023/06/30 01:06:13;;;;;;;22.13;14.55;;;;;;;22.08;64.20;98983.81;4936948;28;20480;-78
2023/06/30 01:09:11;;;;;;;21.90;14.57;;;;;;;21.94;64.50;98973.97;4943753;28;20728;-78
2023/06/30 01:11:41;;;;;;;24.77;15.20;;;;;;;21.79;65.10;98968.63;4941627;28;20777;-78
2023/06/30 01:14:09;;;;;;;19.97;16.40;;;;;;;21.63;66.05;98959.81;4945423;28;20479;-77
2023/06/30 01:16:35;;;;;;;19.47;14.83;;;;;;;21.51;66.99;98963.09;4942187;28;20937;-77
2023/06/30 01:19:06;;;;;;;22.03;15.97;;;;;;;21.46;67.25;98970.84;4943827;28;20486;-78
2023/06/30 01:21:32;;;;;;;23.83;14.50;;;;;;;21.44;67.52;98957.66;4941974;28;20467;-77
2023/06/30 01:24:06;;;;;;;21.00;13.90;;;;;;;21.49;67.28;98968.63;4924101;28;20499;-77
2023/06/30 01:26:34;;;;;;;17.43;13.40;;;;;;;21.53;67.25;98958.41;4949458;28;20460;-77
2023/06/30 01:29:03;;;;;;;20.37;14.73;;;;;;;21.58;67.13;98961.38;4939567;28;20589;-77
2023/06/30 01:31:31;;;;;;;21.40;14.57;;;;;;;21.63;67.26;98967.00;4929187;28;20532;-78
2023/06/30 01:34:00;;;;;;;19.47;12.57;;;;;;;21.68;67.08;98961.06;4942426;28;20489;-77
2023/06/30 01:36:26;;;;;;;22.30;13.30;;;;;;;21.73;66.87;98964.84;4944270;28;20503;-77
2023/06/30 01:38:52;;;;;;;18.30;13.40;;;;;;;21.77;66.77;98966.16;4947968;28;21219;-77
2023/06/30 01:41:20;;;;;;;17.70;13.63;;;;;;;21.83;67.03;98972.59;4926579;28;20461;-77
2023/06/30 01:43:46;;;;;;;18.27;12.40;;;;;;;21.86;66.87;98973.03;4942687;28;20216;-77
2023/06/30 01:46:12;;;;;;;23.80;14.67;;;;;;;21.92;67.17;98978.66;4925461;28;20463;-78
2023/06/30 01:48:38;;;;;;;19.10;13.43;;;;;;;21.98;67.17;98977.91;4947743;28;21027;-77
2023/06/30 01:51:05;;;;;;;19.80;15.07;;;;;;;22.01;67.16;98973.03;4935282;29;20457;-77
2023/06/30 01:53:30;;;;;;;18.70;13.60;;;;;;;22.01;67.44;98974.91;4933879;29;20505;-77
2023/06/30 01:55:56;;;;;;;21.50;13.30;;;;;;;22.00;67.29;98968.69;4932469;29;20463;-77
2023/06/30 01:58:22;;;;;;;19.97;12.50;;;;;;;21.96;67.68;98964.75;4936267;29;20242;-77
2023/06/30 02:00:48;;;;;;;15.03;12.60;;;;;;;21.97;67.41;98962.91;4915307;29;20269;-77
2023/06/30 02:03:13;;;;;;;17.97;13.80;;;;;;;21.97;67.67;98952.19;4906852;29;20809;-78
2023/06/30 02:05:40;;;;;;;22.43;13.07;;;;;;;21.96;67.64;98953.22;4931098;29;20521;-77
2023/06/30 02:08:06;;;;;;;16.40;12.03;;;;;;;21.93;67.29;98956.25;4914266;29;20481;-77
2023/06/30 02:10:31;;;;;;;19.53;11.73;;;;;;;21.94;67.29;98950.72;4913828;29;20222;-77
2023/06/30 02:12:57;;;;;;;18.20;13.70;;;;;;;21.96;67.21;98956.72;4913195;29;20313;-77
2023/06/30 02:15:23;;;;;;;18.00;12.30;;;;;;;22.00;67.17;98958.00;4934865;29;20874;-78
2023/06/30 02:17:48;;;;;;;16.20;12.13;;;;;;;22.01;67.22;98951.66;4933564;29;20478;-77
2023/06/30 02:20:13;;;;;;;22.63;14.23;;;;;;;21.98;67.32;98949.34;4936610;29;20489;-77
2023/06/30 02:22:39;;;;;;;17.90;12.40;;;;;;;21.97;67.64;98954.88;4917918;29;20836;-77
2023/06/30 02:25:05;;;;;;;17.80;12.70;;;;;;;21.93;67.88;98958.94;4936335;29;20256;-77
2023/06/30 02:27:31;;;;;;;19.43;12.87;;;;;;;21.90;67.92;98960.16;4912390;29;20308;-78
2023/06/30 02:29:56;;;;;;;16.40;12.97;;;;;;;21.89;67.94;98953.13;4936714;29;20566;-77
2023/06/30 02:32:22;;;;;;;16.60;10.50;;;;;;;21.92;67.96;98952.75;4934058;29;20281;-78
2023/06/30 02:34:47;;;;;;;18.23;12.97;;;;;;;21.93;68.15;98950.91;4925097;29;20637;-77
2023/06/30 02:37:14;;;;;;;22.00;13.83;;;;;;;21.90;68.05;98948.59;4920373;29;20229;-77
2023/06/30 02:39:39;;;;;;;16.57;12.83;;;;;;;21.86;68.34;98946.31;4938230;29;20237;-77
2023/06/30 02:42:05;;;;;;;16.33;12.10;;;;;;;21.80;68.73;98943.56;4921517;29;20455;-78
2023/06/30 02:44:30;;;;;;;13.60;12.20;;;;;;;21.74;68.71;98934.44;4940033;29;20232;-77
2023/06/30 02:46:56;;;;;;;19.10;12.90;;;;;;;21.71;69.31;98934.81;4937547;29;20277;-78
2023/06/30 02:49:22;;;;;;;17.10;12.00;;;;;;;21.71;69.15;98926.81;4922041;29;20792;-77
2023/06/30 02:51:48;;;;;;;14.80;11.20;;;;;;;21.68;69.02;98919.13;4938090;29;20608;-78
2023/06/30 02:54:13;;;;;;;13.23;11.30;;;;;;;21.67;69.02;98932.69;4937995;29;20550;-78
2023/06/30 02:56:39;;;;;;;16.33;11.70;;;;;;;21.61;69.18;98937.78;4937963;29;20218;-77
2023/06/30 02:59:04;;;;;;;17.43;12.87;;;;;;;21.55;69.50;98943.84;4919691;29;20307;-78
2023/06/30 03:01:29;;;;;;;16.47;14.20;;;;;;;21.52;69.56;98936.22;4919344;29;20300;-77
2023/06/30 03:03:55;;;;;;;15.73;14.07;;;;;;;21.55;69.59;98943.00;4918257;29;20687;-77
2023/06/30 03:06:24;;;;;;;15.90;12.80;;;;;;;21.53;69.91;98942.38;4916305;29;20601;-78
2023/06/30 03:08:50;;;;;;;18.43;12.70;;;;;;;21.43;70.08;98935.47;4918037;29;20976;-77
2023/06/30 03:11:16;;;;;;;17.03;12.93;;;;;;;21.38;70.37;98943.19;4921352;29;20218;-77
2023/06/30 03:13:41;;;;;;;15.67;12.43;;;;;;;21.37;70.41;98946.88;4915407;29;20482;-78
2023/06/30 03:16:07;;;;;;;18.20;15.17;;;;;;;21.41;70.32;98958.88;4918334;29;20235;-78
2023/06/30 03:18:34;;;;;;;18.77;13.57;;;;;;;21.43;70.05;98962.16;4913295;29;20511;-79
2023/06/30 03:21:00;;;;;;;19.57;12.27;;;;;;;21.43;70.13;98972.03;4921407;29;20465;-77
2023/06/30 03:23:26;;;;;;;17.43;12.57;;;;;;;21.43;70.10;98969.38;4935600;29;20480;-78
2023/06/30 03:25:51;;;;;;;21.33;13.70;;;;;;;21.43;70.09;98975.53;4935240;29;20752;-78
2023/06/30 03:28:16;;;;;;;18.50;13.97;;;;;;;21.45;70.33;98980.72;4919332;29;20516;-78
2023/06/30 03:30:42;;;;;;;18.43;14.63;;;;;;;21.43;70.40;98983.53;4921984;29;20207;-77
2023/06/30 03:33:07;;;;;;;17.80;12.80;;;;;;;21.42;70.39;98989.91;4919806;29;20746;-77
2023/06/30 03:35:33;;;;;;;21.15;14.95;;;;;;;21.43;70.94;98990.75;4918243;29;20488;-77
2023/06/30 03:37:59;;;;;;;16.33;13.70;;;;;;;21.43;71.00;98996.09;4918165;29;20311;-77
2023/06/30 03:40:24;;;;;;;20.37;14.27;;;;;;;21.43;71.07;98996.09;4918261;29;20288;-78
2023/06/30 03:42:50;;;;;;;23.37;16.07;;;;;;;21.43;71.08;98999.56;4935915;29;20483;-77
2023/06/30 03:45:15;;;;;;;20.43;13.67;;;;;;;21.47;70.83;99001.88;4910468;29;20220;-77
2023/06/30 03:47:41;;;;;;;19.70;14.83;;;;;;;21.51;70.80;98992.50;4935857;28;20229;-77
2023/06/30 03:50:06;;;;;;;18.27;13.80;;;;;;;21.52;70.92;98994.16;4910503;29;20250;-80
2023/06/30 03:52:32;;;;;;;22.37;15.77;;;;;;;21.52;70.80;98994.16;4909744;29;20317;-78
2023/06/30 03:54:58;;;;;;;22.33;14.80;;;;;;;21.51;70.54;98996.00;4926701;29;20346;-77
2023/06/30 03:57:23;;;;;;;18.93;13.80;;;;;;;21.51;70.82;98998.66;4926118;29;20236;-79
2023/06/30 03:59:48;;;;;;;18.97;15.13;;;;;;;21.51;70.78;99001.34;4926415;29;20276;-77
2023/06/30 04:02:14;;;;;;;18.37;14.70;;;;;;;21.53;70.83;99003.84;4923512;29;20305;-78
2023/06/30 04:04:39;;;;;;;18.27;15.63;;;;;;;21.54;70.94;99002.81;4926418;29;20307;-77
2023/06/30 04:07:05;;;;;;;19.23;14.17;;;;;;;21.54;71.00;99011.66;4925448;29;20319;-78
2023/06/30 04:09:30;;;;;;;19.60;14.60;;;;;;;21.54;71.12;99010.84;4908032;29;20230;-80
2023/06/30 04:11:56;;;;;;;22.40;15.60;;;;;;;21.54;71.08;99014.34;4921405;29;20225;-79
2023/06/30 04:14:21;;;;;;;18.63;14.43;;;;;;;21.53;70.98;99017.22;4930796;29;20249;-78
2023/06/30 04:16:47;;;;;;;21.50;14.60;;;;;;;21.45;71.30;99017.28;4922101;29;20254;-78
2023/06/30 04:19:12;;;;;;;20.17;14.90;;;;;;;21.41;71.73;99019.47;4927910;29;20739;-80
2023/06/30 04:21:38;;;;;;;17.10;12.70;;;;;;;21.35;71.95;99023.66;4930493;29;20319;-78
2023/06/30 04:24:03;;;;;;;17.77;12.93;;;;;;;21.32;72.06;99024.03;4926479;29;20226;-80
2023/06/30 04:26:30;;;;;;;16.03;12.30;;;;;;;21.30;72.30;99027.91;4928921;29;20309;-78
2023/06/30 04:28:56;;;;;;;18.13;11.40;;;;;;;21.27;72.57;99023.75;4924153;29;20721;-79
2023/06/30 04:31:21;;;;;;;17.93;12.70;;;;;;;21.23;72.78;99024.31;4928987;29;20606;-77
2023/06/30 04:33:47;;;;;;;18.70;12.30;;;;;;;21.21;72.83;99029.81;4927125;29;20236;-78
2023/06/30 04:36:12;;;;;;;15.37;12.53;;;;;;;21.17;72.75;99033.84;4930376;29;20220;-78
2023/06/30 04:38:37;;;;;;;14.77;12.33;;;;;;;21.15;73.22;99034.03;4926342;29;20228;-77
2023/06/30 04:41:03;;;;;;;13.83;10.97;;;;;;;21.16;73.27;99037.53;4926524;29;20215;-78
2023/06/30 04:43:28;;;;;;;18.60;12.20;;;;;;;21.16;73.10;99037.53;4931580;29;20268;-77
2023/06/30 04:45:53;;;;;;;18.03;11.90;;;;;;;21.16;73.32;99035.69;4929019;29;20228;-77
2023/06/30 04:48:19;;;;;;;14.30;11.20;;;;;;;21.15;73.45;99041.22;4925654;29;20705;-79
2023/06/30 04:50:44;;;;;;;16.10;12.70;;;;;;;21.17;73.19;99039.19;4937774;29;20235;-78
2023/06/30 04:53:10;;;;;;;14.37;10.77;;;;;;;21.15;73.45;99035.88;4938796;29;20225;-78
2023/06/30 04:55:35;;;;;;;17.03;11.50;;;;;;;21.16;73.34;99038.38;4935786;29;20297;-77
2023/06/30 04:58:01;;;;;;;14.70;11.47;;;;;;;21.18;73.34;99038.19;4937734;29;20323;-78
2023/06/30 05:00:26;;;;;;;18.37;13.00;;;;;;;21.18;73.38;99046.22;4935461;28;20230;-77
2023/06/30 05:02:52;;;;;;;17.43;12.40;;;;;;;21.20;73.52;99033.50;4934919;29;20950;-79
2023/06/30 05:05:18;;;;;;;18.63;13.23;;;;;;;21.23;73.34;99043.84;4930615;29;20857;-79
2023/06/30 05:07:46;;;;;;;16.13;12.53;;;;;;;21.23;73.44;99048.34;4954569;29;20703;-79
2023/06/30 05:10:42;;;;;;;17.70;12.20;;;;;;;21.22;73.43;99052.84;4944943;29;20383;-78
2023/06/30 05:13:08;;;;;;;14.77;11.13;;;;;;;21.21;73.36;99048.50;4938340;29;20506;-78
2023/06/30 05:15:33;;;;;;;16.17;11.97;;;;;;;21.22;73.43;99058.19;4956003;29;20494;-79
2023/06/30 05:17:59;;;;;;;15.77;12.90;;;;;;;21.24;73.61;99056.16;4954633;29;20217;-78
2023/06/30 05:20:24;;;;;;;16.40;12.90;;;;;;;21.27;73.65;99065.66;4953931;29;20223;-78
2023/06/30 05:22:50;;;;;;;15.57;12.57;;;;;;;21.26;73.46;99067.50;4942799;29;20212;-78
2023/06/30 05:25:15;;;;;;;16.47;12.67;;;;;;;21.30;73.55;99074.13;4939933;29;20228;-78
2023/06/30 05:27:41;;;;;;;21.70;14.30;;;;;;;21.34;73.53;99085.31;4939269;29;20742;-78
2023/06/30 05:30:07;;;;;;;14.63;11.70;;;;;;;21.36;73.53;99080.59;4948763;29;20235;-79
2023/06/30 05:32:33;;;;;;;18.80;12.50;;;;;;;21.34;73.50;99086.13;4950306;28;20300;-79
2023/06/30 05:34:59;;;;;;;15.70;11.03;;;;;;;21.30;73.78;99089.34;4952578;29;20451;-79
2023/06/30 05:37:24;;;;;;;17.67;14.20;;;;;;;21.27;73.77;99093.19;4945070;29;20416;-79
2023/06/30 05:39:50;;;;;;;17.10;11.87;;;;;;;21.23;74.04;99091.91;4953602;29;20218;-79
2023/06/30 05:42:15;;;;;;;15.40;13.13;;;;;;;21.19;73.99;99106.63;4952937;29;20241;-81
2023/06/30 05:44:41;;;;;;;17.77;11.77;;;;;;;21.15;74.02;99102.66;4952815;29;20248;-82
2023/06/30 05:47:06;;;;;;;18.00;11.70;;;;;;;21.10;74.05;99105.03;4951924;29;20323;-82
2023/06/30 05:49:32;;;;;;;14.13;11.50;;;;;;;21.07;74.14;99108.06;4954436;28;20523;-81
2023/06/30 05:51:57;;;;;;;16.70;11.17;;;;;;;21.03;74.38;99107.56;4962013;28;20224;-80
2023/06/30 05:54:23;;;;;;;14.70;11.40;;;;;;;20.98;74.46;99115.25;4960567;28;20500;-80
2023/06/30 05:56:48;;;;;;;14.10;12.43;;;;;;;20.95;74.73;99111.13;4959381;28;20206;-80
2023/06/30 05:59:14;;;;;;;17.70;12.33;;;;;;;20.93;74.94;99117.66;4961705;28;20435;-82
2023/06/30 06:01:40;;;;;;;15.77;12.73;;;;;;;20.92;74.95;99118.66;4958183;28;20227;-81
2023/06/30 06:04:10;;;;;;;18.83;13.03;;;;;;;20.89;75.18;99124.34;4956685;28;20215;-81
2023/06/30 06:06:36;;;;;;;17.67;11.77;;;;;;;20.86;75.30;99135.38;4957915;28;20216;-84
2023/06/30 06:09:02;;;;;;;17.70;13.97;;;;;;;20.83;75.41;99136.56;4959184;28;20526;-82
2023/06/30 06:11:28;;;;;;;15.73;11.90;;;;;;;20.84;75.54;99143.53;4956900;28;20952;-82
2023/06/30 06:13:53;;;;;;;16.03;11.83;;;;;;;20.83;75.58;99147.22;4960096;28;20943;-83
2023/06/30 06:16:18;;;;;;;23.17;14.30;;;;;;;20.82;75.59;99158.94;4961052;28;20225;-82
2023/06/30 06:18:44;;;;;;;17.57;12.00;;;;;;;20.78;75.48;99158.41;4955239;28;20646;-81
2023/06/30 06:21:09;;;;;;;22.20;11.70;;;;;;;20.74;75.49;99165.13;4958456;28;20883;-82
2023/06/30 06:23:35;;;;;;;15.70;11.50;;;;;;;20.64;75.18;99169.00;4957847;28;20234;-82
2023/06/30 06:26:03;;;;;;;17.67;11.23;;;;;;;20.50;75.40;99175.88;4963143;28;20250;-84
2023/06/30 06:28:29;;;;;;;17.53;10.57;;;;;;;20.37;75.40;99173.75;4966041;28;20222;-82
2023/06/30 06:30:54;;;;;;;22.33;11.57;;;;;;;20.22;75.70;99175.44;4959478;28;20540;-81
2023/06/30 06:33:20;;;;;;;14.30;9.80;;;;;;;20.10;75.97;99173.13;4962251;28;20252;-83
2023/06/30 06:35:49;;;;;;;17.70;9.17;;;;;;;20.03;76.17;99173.97;4950904;28;20696;-83
2023/06/30 06:38:17;;;;;;;20.97;10.80;;;;;;;19.98;76.41;99174.50;4965893;28;20235;-84
2023/06/30 06:40:43;;;;;;;16.23;9.20;;;;;;;19.98;76.38;99163.84;4966305;28;20483;-83
2023/06/30 06:43:11;;;;;;;14.93;9.67;;;;;;;20.00;76.49;99163.66;4964010;28;20570;-83
2023/06/30 06:45:39;;;;;;;18.43;9.07;;;;;;;20.02;76.36;99161.66;4963982;28;20579;-83
2023/06/30 06:48:27;;;;;;;13.40;9.00;;;;;;;20.05;76.19;99166.63;4961200;28;20485;-83
2023/06/30 06:50:55;;;;;;;18.20;11.40;;;;;;;20.07;76.20;99165.47;4947107;29;20230;-84
2023/06/30 06:53:22;;;;;;;16.07;10.00;;;;;;;20.09;76.04;99160.81;4946458;29;20567;-84
2023/06/30 06:55:52;;;;;;;17.97;10.17;;;;;;;20.09;75.83;99154.63;4950519;29;20859;-83
2023/06/30 06:58:18;;;;;;;18.03;9.53;;;;;;;20.10;76.12;99151.78;4952871;29;20497;-84
2023/06/30 07:00:46;;;;;;;17.40;11.07;;;;;;;20.15;76.16;99156.63;4955075;29;20516;-84
2023/06/30 07:03:11;;;;;;;15.90;11.07;;;;;;;20.21;75.95;99152.44;4949450;29;20487;-85
2023/06/30 07:05:39;;;;;;;16.73;11.00;;;;;;;20.30;76.00;99148.75;4950333;29;20490;-83
2023/06/30 07:08:06;;;;;;;17.57;9.80;;;;;;;20.35;75.99;99146.41;4952859;29;20308;-85
2023/06/30 07:10:31;;;;;;;16.00;9.57;;;;;;;20.42;75.92;99150.06;4952314;29;20480;-84
2023/06/30 07:12:57;;;;;;;14.17;10.07;;;;;;;20.51;75.66;99150.84;4955447;29;20501;-84
2023/06/30 07:15:22;;;;;;;15.37;10.40;;;;;;;20.60;75.55;99155.16;4939414;29;20251;-81
2023/06/30 07:17:48;;;;;;;13.80;9.97;;;;;;;20.68;75.20;99148.97;4928755;29;20233;-80
2023/06/30 07:20:13;;;;;;;19.40;13.17;;;;;;;20.74;75.04;99149.13;4924823;29;21129;-82
2023/06/30 07:22:39;;;;;;;21.00;12.83;;;;;;;20.81;74.81;99151.91;4928291;28;20215;-81
2023/06/30 07:25:06;;;;;;;17.60;12.30;;;;;;;20.86;74.54;99146.88;4927541;29;20228;-82
2023/06/30 07:27:33;;;;;;;15.90;10.13;;;;;;;20.90;74.45;99150.88;4933721;29;20228;-81
2023/06/30 07:29:58;;;;;;;17.97;11.20;;;;;;;20.92;74.24;99143.50;4929662;29;20679;-81
2023/06/30 07:32:24;;;;;;;15.27;9.57;;;;;;;20.95;74.21;99136.97;4926117;29;20787;-81
2023/06/30 07:34:49;;;;;;;15.70;9.90;;;;;;;21.00;74.15;99143.44;4934194;29;20627;-80
2023/06/30 07:37:14;;;;;;;14.17;9.80;;;;;;;21.05;74.13;99136.75;4930865;29;20480;-82
2023/06/30 07:39:40;;;;;;;14.03;10.67;;;;;;;21.08;73.81;99145.25;4931747;29;20227;-83
2023/06/30 07:42:05;;;;;;;17.53;10.27;;;;;;;21.10;73.70;99131.72;4931295;29;20728;-83
2023/06/30 07:44:31;;;;;;;16.73;10.50;;;;;;;21.14;73.38;99133.88;4930683;29;20272;-80
2023/06/30 07:46:56;;;;;;;14.83;9.70;;;;;;;21.18;73.49;99129.84;4935415;29;20284;-82
2023/06/30 07:49:22;;;;;;;14.80;9.90;;;;;;;21.19;73.15;99131.47;4912861;29;20239;-82
2023/06/30 07:51:47;;;;;;;16.47;10.70;;;;;;;21.19;73.25;99128.81;4925053;29;20228;-83
2023/06/30 07:54:13;;;;;;;16.67;11.53;;;;;;;21.23;73.18;99131.97;4925847;29;20264;-82
2023/06/30 07:56:39;;;;;;;19.97;12.17;;;;;;;21.29;73.23;99128.59;4927437;29;20458;-80
2023/06/30 07:59:05;;;;;;;18.67;10.57;;;;;;;21.37;72.90;99131.22;4928244;29;20256;-83
2023/06/30 08:01:30;;;;;;;17.23;10.97;;;;;;;21.46;72.85;99134.66;4928815;29;20531;-81
2023/06/30 08:03:56;;;;;;;19.20;11.90;;;;;;;21.53;72.52;99130.28;4931220;29;20268;-81
2023/06/30 08:06:21;;;;;;;13.70;9.50;;;;;;;21.60;72.15;99119.69;4931993;29;20275;-83
2023/06/30 08:08:47;;;;;;;20.70;12.40;;;;;;;21.68;72.14;99121.44;4928930;29;20646;-80
2023/06/30 08:11:12;;;;;;;18.47;13.00;;;;;;;21.78;71.98;99117.50;4927605;29;20276;-81
2023/06/30 08:13:37;;;;;;;19.77;10.60;;;;;;;21.86;71.55;99117.44;4930290;29;20234;-81
2023/06/30 08:16:03;;;;;;;16.80;11.00;;;;;;;21.97;71.68;99118.00;4927150;29;20283;-80
2023/06/30 08:18:29;;;;;;;17.27;10.30;;;;;;;22.01;71.19;99119.31;4930421;29;20313;-83
2023/06/30 08:20:58;;;;;;;23.73;12.50;;;;;;;22.04;71.22;99117.09;4932795;29;20483;-82
2023/06/30 08:23:25;;;;;;;15.80;10.00;;;;;;;22.10;70.95;99110.16;4927538;29;20218;-80
2023/06/30 08:25:53;;;;;;;16.33;10.90;;;;;;;22.17;70.67;99112.94;4930264;29;20499;-83
2023/06/30 08:28:19;;;;;;;14.00;11.10;;;;;;;22.26;70.33;99115.38;4936596;29;20552;-82
2023/06/30 08:30:44;;;;;;;15.37;9.70;;;;;;;22.31;69.33;99118.31;4935912;29;20478;-79
2023/06/30 08:33:09;;;;;;;14.97;10.20;;;;;;;22.31;69.80;99117.50;4927209;29;20735;-79
2023/06/30 08:35:35;;;;;;;19.60;11.43;;;;;;;22.40;70.23;99118.22;4922753;29;20958;-80
2023/06/30 08:38:00;;;;;;;16.87;11.70;;;;;;;22.51;69.91;99107.88;4923740;29;21025;-82
2023/06/30 08:40:29;;;;;;;13.50;9.03;;;;;;;22.62;69.37;99111.09;4915236;29;20220;-81
2023/06/30 08:42:57;;;;;;;16.23;9.97;;;;;;;22.70;69.13;99110.97;4923505;29;20215;-80
2023/06/30 08:45:25;;;;;;;15.87;9.63;;;;;;;22.80;69.11;99116.03;4923633;29;20467;-81
2023/06/30 08:47:51;;;;;;;14.67;9.37;;;;;;;22.86;68.60;99116.09;4910555;29;20864;-82
2023/06/30 08:50:16;;;;;;;18.37;9.53;;;;;;;22.93;68.11;99121.56;4933379;29;21079;-78
2023/06/30 08:52:43;;;;;;;13.90;9.50;;;;;;;23.01;68.11;99118.78;4932281;29;20455;-82
2023/06/30 08:55:09;;;;;;;15.37;9.50;;;;;;;23.19;67.74;99124.50;4935137;29;20219;-79
2023/06/30 08:57:36;;;;;;;18.63;10.23;;;;;;;23.35;67.07;99125.28;4939061;29;20436;-79
2023/06/30 09:00:01;;;;;;;16.20;9.53;;;;;;;23.47;66.65;99126.44;4934256;29;20898;-83
2023/06/30 09:02:27;;;;;;;18.83;10.93;;;;;;;23.52;66.17;99118.66;4936258;29;20860;-81
2023/06/30 09:04:54;;;;;;;15.10;10.17;;;;;;;23.57;65.97;99132.31;4935257;29;20793;-79
2023/06/30 09:07:25;;;;;;;16.03;9.40;;;;;;;23.71;65.45;99129.72;4934929;29;20494;-81
2023/06/30 09:09:56;;;;;;;13.57;9.03;;;;;;;23.79;64.85;99126.94;4932999;29;20449;-80
2023/06/30 09:12:24;;;;;;;10.47;6.60;;;;;;;23.87;64.36;99137.50;4934529;29;21030;-81
2023/06/30 09:14:51;;;;;;;19.30;9.67;;;;;;;23.94;63.87;99135.72;4931856;29;20472;-82
2023/06/30 09:17:17;;;;;;;12.33;9.20;;;;;;;24.04;63.48;99141.56;4915470;29;20476;-82
2023/06/30 09:19:44;;;;;;;13.47;7.73;;;;;;;24.14;63.14;99135.88;4929290;29;20488;-79
2023/06/30 09:22:11;;;;;;;12.27;8.57;;;;;;;24.19;62.71;99140.63;4934082;29;20544;-82
2023/06/30 09:24:36;;;;;;;13.10;8.30;;;;;;;24.11;62.19;99132.72;4932748;29;21092;-84
2023/06/30 09:27:02;;;;;;;13.40;9.83;;;;;;;23.95;62.37;99123.13;4935676;29;20471;-80
2023/06/30 09:29:33;;;;;;;12.50;8.27;;;;;;;23.89;62.82;99140.84;4934838;29;20230;-83
2023/06/30 09:32:03;;;;;;;10.60;8.17;;;;;;;23.87;62.70;99139.38;4933926;29;20379;-81
2023/06/30 09:34:29;;;;;;;15.67;10.53;;;;;;;23.84;62.35;99129.84;4933268;29;20500;-80
2023/06/30 09:36:54;;;;;;;14.77;8.80;;;;;;;23.77;62.96;99134.34;4935281;29;20486;-79
2023/06/30 09:39:21;;;;;;;12.53;9.07;;;;;;;23.70;62.53;99128.91;4935281;29;20254;-79
2023/06/30 09:41:48;;;;;;;12.20;8.57;;;;;;;23.66;62.55;99133.00;4917997;29;20218;-81
2023/06/30 09:44:22;;;;;;;13.67;8.83;;;;;;;23.66;62.91;99129.50;4935103;29;20615;-83
2023/06/30 09:46:52;;;;;;;14.13;8.80;;;;;;;23.71;62.77;99127.91;4935658;28;20687;-83
2023/06/30 09:49:32;;;;;;;13.10;9.47;;;;;;;23.73;62.94;99119.66;4938047;28;21008;-82
2023/06/30 09:52:05;;;;;;;12.10;8.20;;;;;;;23.75;62.74;99123.81;4947977;28;20495;-83
2023/06/30 09:54:31;;;;;;;16.47;9.00;;;;;;;23.81;62.93;99122.19;4947952;28;20456;-79
2023/06/30 09:56:57;;;;;;;14.87;8.73;;;;;;;23.83;62.77;99114.81;4943417;28;20948;-82
2023/06/30 09:59:22;;;;;;;15.07;9.33;;;;;;;23.82;61.83;99124.69;4942113;28;20497;-82
2023/06/30 10:01:52;;;;;;;12.77;8.57;;;;;;;23.75;61.40;99121.13;4943662;28;20500;-81
2023/06/30 10:04:17;;;;;;;11.40;7.10;;;;;;;23.72;61.34;99126.06;4942722;28;20304;-81
2023/06/30 10:06:44;;;;;;;10.73;7.90;;;;;;;23.69;61.62;99123.75;4924262;28;20500;-80
2023/06/30 10:09:09;;;;;;;12.30;7.03;;;;;;;23.71;61.65;99125.25;4943132;28;20234;-81
2023/06/30 10:11:36;;;;;;;11.00;7.80;;;;;;;23.73;61.55;99130.41;4945897;28;20480;-79
2023/06/30 10:14:03;;;;;;;12.30;8.13;;;;;;;23.78;61.67;99125.28;4944109;28;20308;-82
2023/06/30 10:16:29;;;;;;;14.37;7.93;;;;;;;23.82;61.77;99129.25;4945376;28;21007;-80
2023/06/30 10:18:58;;;;;;;12.40;8.27;;;;;;;23.88;61.62;99120.41;4942375;28;20509;-79
2023/06/30 10:21:23;;;;;;;12.03;8.40;;;;;;;23.92;61.61;99115.47;4945040;28;20603;-81
2023/06/30 10:23:49;;;;;;;14.30;8.40;;;;;;;23.92;61.45;99107.44;4942942;28;20471;-80
2023/06/30 10:26:19;;;;;;;11.13;8.10;;;;;;;24.01;61.37;99108.94;4940975;28;20218;-80
2023/06/30 10:28:45;;;;;;;12.67;7.87;;;;;;;24.07;61.14;99110.84;4943462;28;20485;-82
2023/06/30 10:31:11;;;;;;;11.73;7.63;;;;;;;24.07;61.05;99100.09;4926185;28;21071;-81
2023/06/30 10:33:37;;;;;;;11.63;7.13;;;;;;;24.10;61.05;99115.81;4943621;28;20559;-80
2023/06/30 10:36:04;;;;;;;11.57;7.20;;;;;;;24.10;59.82;99114.97;4934590;28;20560;-82
2023/06/30 10:38:29;;;;;;;10.67;6.80;;;;;;;24.12;59.88;99129.03;4945693;28;20258;-80
2023/06/30 10:41:16;;;;;;;9.13;6.83;;;;;;;24.14;59.56;99121.59;4944502;28;20451;-82
2023/06/30 10:44:04;;;;;;;10.10;7.00;;;;;;;24.23;59.12;99117.75;4944876;28;20246;-82
2023/06/30 10:46:49;;;;;;;10.37;6.90;;;;;;;24.33;58.76;99118.22;4947482;28;20477;-80
2023/06/30 10:49:29;;;;;;;11.20;6.93;;;;;;;24.49;58.39;99117.06;4940119;28;20537;-81
2023/06/30 10:51:56;;;;;;;10.90;7.90;;;;;;;24.65;57.70;99114.03;4931257;29;20591;-82
2023/06/30 10:54:27;;;;;;;9.67;7.67;;;;;;;24.86;56.82;99115.75;4932580;29;20746;-79
2023/06/30 10:57:14;;;;;;;12.80;7.57;;;;;;;24.94;56.62;99109.38;4929917;29;20488;-80
2023/06/30 10:59:47;;;;;;;10.65;8.20;;;;;;;24.99;56.00;99123.03;4931503;29;20539;-80
2023/06/30 11:02:24;;;;;;;13.27;8.53;;;;;;;24.94;56.20;99112.91;4933731;29;20254;-79
2023/06/30 11:04:52;;;;;;;11.55;8.75;;;;;;;24.94;56.77;99109.38;4936227;29;20748;-80
2023/06/30 11:07:26;;;;;;;11.87;8.87;;;;;;;25.01;57.36;99109.41;4935492;29;20713;-79
2023/06/30 11:09:51;;;;;;;15.10;8.30;;;;;;;25.03;56.87;99113.53;4929934;29;20915;-80
2023/06/30 11:12:20;;;;;;;13.67;8.60;;;;;;;25.05;55.91;99116.84;4935013;29;20479;-81
2023/06/30 11:14:59;;;;;;;11.10;7.23;;;;;;;25.14;55.71;99114.78;4931929;29;20229;-79
2023/06/30 11:17:26;;;;;;;15.70;10.40;;;;;;;25.25;54.86;99111.56;4936641;29;20488;-82
2023/06/30 11:20:09;;;;;;;14.87;10.47;;;;;;;25.29;54.63;99120.03;4934220;29;20589;-79